sensor_id;sensor_type;location;lat;lon;timestamp;temperature;humidity
74809;DHT22;63338;39.544;2.596;2023-05-03T00:00:04;16.20;67.90
74809;DHT22;63338;39.544;2.596;2023-05-03T00:02:35;16.00;68.10
74809;DHT22;63338;39.544;2.596;2023-05-03T00:05:07;16.00;68.10
74809;DHT22;63338;39.544;2.596;2023-05-03T00:07:37;16.00;68.20
74809;DHT22;63338;39.544;2.596;2023-05-03T00:10:05;16.00;68.40
74809;DHT22;63338;39.544;2.596;2023-05-03T00:12:31;16.00;68.40
74809;DHT22;63338;39.544;2.596;2023-05-03T00:14:57;15.90;68.30
74809;DHT22;63338;39.544;2.596;2023-05-03T00:17:23;15.90;67.90
74809;DHT22;63338;39.544;2.596;2023-05-03T00:19:49;15.90;68.00
74809;DHT22;63338;39.544;2.596;2023-05-03T00:22:18;15.90;68.10
74809;DHT22;63338;39.544;2.596;2023-05-03T00:24:44;15.80;67.90
74809;DHT22;63338;39.544;2.596;2023-05-03T00:27:10;15.80;67.80
74809;DHT22;63338;39.544;2.596;2023-05-03T00:29:36;15.70;67.90
74809;DHT22;63338;39.544;2.596;2023-05-03T00:32:02;15.80;67.90
74809;DHT22;63338;39.544;2.596;2023-05-03T00:34:29;15.70;68.00
74809;DHT22;63338;39.544;2.596;2023-05-03T00:36:55;15.70;67.80
74809;DHT22;63338;39.544;2.596;2023-05-03T00:39:21;15.70;67.50
74809;DHT22;63338;39.544;2.596;2023-05-03T00:41:55;15.70;67.70
74809;DHT22;63338;39.544;2.596;2023-05-03T00:44:22;15.70;67.90
74809;DHT22;63338;39.544;2.596;2023-05-03T00:46:49;15.70;67.90
74809;DHT22;63338;39.544;2.596;2023-05-03T00:49:15;15.60;68.20
74809;DHT22;63338;39.544;2.596;2023-05-03T00:51:41;15.80;68.00
74809;DHT22;63338;39.544;2.596;2023-05-03T00:54:08;15.70;68.20
74809;DHT22;63338;39.544;2.596;2023-05-03T00:56:34;15.70;68.30
74809;DHT22;63338;39.544;2.596;2023-05-03T00:59:01;15.70;68.10
74809;DHT22;63338;39.544;2.596;2023-05-03T01:01:27;15.70;68.10
74809;DHT22;63338;39.544;2.596;2023-05-03T01:03:55;15.70;68.10
74809;DHT22;63338;39.544;2.596;2023-05-03T01:06:42;15.70;68.20
74809;DHT22;63338;39.544;2.596;2023-05-03T01:09:33;15.80;68.00
74809;DHT22;63338;39.544;2.596;2023-05-03T01:15:07;15.70;68.20
74809;DHT22;63338;39.544;2.596;2023-05-03T01:17:40;15.70;68.30
74809;DHT22;63338;39.544;2.596;2023-05-03T01:20:10;15.70;68.20
74809;DHT22;63338;39.544;2.596;2023-05-03T01:22:46;15.80;68.50
74809;DHT22;63338;39.544;2.596;2023-05-03T01:25:14;15.70;68.60
74809;DHT22;63338;39.544;2.596;2023-05-03T01:27:41;15.70;68.80
74809;DHT22;63338;39.544;2.596;2023-05-03T01:30:10;15.70;68.90
74809;DHT22;63338;39.544;2.596;2023-05-03T01:32:55;15.70;69.00
74809;DHT22;63338;39.544;2.596;2023-05-03T01:35:40;15.70;69.30
74809;DHT22;63338;39.544;2.596;2023-05-03T01:38:09;15.70;69.50
74809;DHT22;63338;39.544;2.596;2023-05-03T01:41:05;15.70;69.70
74809;DHT22;63338;39.544;2.596;2023-05-03T01:43:34;15.70;69.70
74809;DHT22;63338;39.544;2.596;2023-05-03T01:46:01;15.80;69.70
74809;DHT22;63338;39.544;2.596;2023-05-03T01:48:28;15.70;69.60
74809;DHT22;63338;39.544;2.596;2023-05-03T01:50:57;15.80;69.30
74809;DHT22;63338;39.544;2.596;2023-05-03T01:53:23;15.80;69.60
74809;DHT22;63338;39.544;2.596;2023-05-03T01:55:49;16.00;69.80
74809;DHT22;63338;39.544;2.596;2023-05-03T01:58:16;16.00;70.60
74809;DHT22;63338;39.544;2.596;2023-05-03T02:00:44;16.10;71.20
74809;DHT22;63338;39.544;2.596;2023-05-03T02:03:10;16.20;71.10
74809;DHT22;63338;39.544;2.596;2023-05-03T02:05:39;16.30;71.30
74809;DHT22;63338;39.544;2.596;2023-05-03T02:08:06;16.40;71.70
74809;DHT22;63338;39.544;2.596;2023-05-03T02:10:32;16.40;72.30
74809;DHT22;63338;39.544;2.596;2023-05-03T02:13:01;16.50;72.40
74809;DHT22;63338;39.544;2.596;2023-05-03T02:15:27;16.50;72.40
74809;DHT22;63338;39.544;2.596;2023-05-03T02:17:58;16.50;72.50
74809;DHT22;63338;39.544;2.596;2023-05-03T02:20:27;16.50;72.60
74809;DHT22;63338;39.544;2.596;2023-05-03T02:22:56;16.50;73.10
74809;DHT22;63338;39.544;2.596;2023-05-03T02:25:25;16.60;73.60
74809;DHT22;63338;39.544;2.596;2023-05-03T02:27:52;16.60;73.70
74809;DHT22;63338;39.544;2.596;2023-05-03T02:30:18;16.70;74.00
74809;DHT22;63338;39.544;2.596;2023-05-03T02:32:43;16.70;74.10
74809;DHT22;63338;39.544;2.596;2023-05-03T02:35:10;16.80;74.10
74809;DHT22;63338;39.544;2.596;2023-05-03T02:37:36;16.80;74.40
74809;DHT22;63338;39.544;2.596;2023-05-03T02:40:03;16.80;74.40
74809;DHT22;63338;39.544;2.596;2023-05-03T02:42:30;16.80;74.80
74809;DHT22;63338;39.544;2.596;2023-05-03T02:44:56;16.90;74.80
74809;DHT22;63338;39.544;2.596;2023-05-03T02:47:22;16.90;74.80
74809;DHT22;63338;39.544;2.596;2023-05-03T02:49:48;17.00;74.90
74809;DHT22;63338;39.544;2.596;2023-05-03T02:52:14;17.00;74.60
74809;DHT22;63338;39.544;2.596;2023-05-03T02:54:40;16.90;74.50
74809;DHT22;63338;39.544;2.596;2023-05-03T02:57:09;16.90;74.70
74809;DHT22;63338;39.544;2.596;2023-05-03T02:59:36;16.90;74.50
74809;DHT22;63338;39.544;2.596;2023-05-03T03:02:06;16.90;74.20
74809;DHT22;63338;39.544;2.596;2023-05-03T03:04:32;16.90;73.80
74809;DHT22;63338;39.544;2.596;2023-05-03T03:06:58;16.80;73.40
74809;DHT22;63338;39.544;2.596;2023-05-03T03:09:24;16.80;73.20
74809;DHT22;63338;39.544;2.596;2023-05-03T03:11:59;16.70;72.60
74809;DHT22;63338;39.544;2.596;2023-05-03T03:14:28;16.70;74.00
74809;DHT22;63338;39.544;2.596;2023-05-03T03:16:54;16.60;74.20
74809;DHT22;63338;39.544;2.596;2023-05-03T03:19:20;16.60;74.10
74809;DHT22;63338;39.544;2.596;2023-05-03T03:21:46;16.50;73.80
74809;DHT22;63338;39.544;2.596;2023-05-03T03:24:12;16.40;74.50
74809;DHT22;63338;39.544;2.596;2023-05-03T03:26:38;16.30;74.10
74809;DHT22;63338;39.544;2.596;2023-05-03T03:29:04;16.30;74.20
74809;DHT22;63338;39.544;2.596;2023-05-03T03:31:30;16.20;73.80
74809;DHT22;63338;39.544;2.596;2023-05-03T03:33:59;16.00;74.10
74809;DHT22;63338;39.544;2.596;2023-05-03T03:36:29;16.00;74.80
74809;DHT22;63338;39.544;2.596;2023-05-03T03:38:55;15.80;75.80
74809;DHT22;63338;39.544;2.596;2023-05-03T03:41:25;15.80;76.00
74809;DHT22;63338;39.544;2.596;2023-05-03T03:43:51;15.80;76.00
74809;DHT22;63338;39.544;2.596;2023-05-03T03:46:17;15.70;76.40
74809;DHT22;63338;39.544;2.596;2023-05-03T03:48:43;15.60;76.20
74809;DHT22;63338;39.544;2.596;2023-05-03T03:51:12;15.60;76.20
74809;DHT22;63338;39.544;2.596;2023-05-03T03:53:38;15.50;76.30
74809;DHT22;63338;39.544;2.596;2023-05-03T03:56:04;15.50;76.10
74809;DHT22;63338;39.544;2.596;2023-05-03T03:58:31;15.40;76.20
74809;DHT22;63338;39.544;2.596;2023-05-03T04:00:57;15.40;77.20
74809;DHT22;63338;39.544;2.596;2023-05-03T04:03:26;15.30;77.50
74809;DHT22;63338;39.544;2.596;2023-05-03T04:05:56;15.30;77.90
74809;DHT22;63338;39.544;2.596;2023-05-03T04:08:22;15.30;77.90
74809;DHT22;63338;39.544;2.596;2023-05-03T04:10:48;15.30;77.80
74809;DHT22;63338;39.544;2.596;2023-05-03T04:13:14;15.10;77.90
74809;DHT22;63338;39.544;2.596;2023-05-03T04:15:40;15.00;78.00
74809;DHT22;63338;39.544;2.596;2023-05-03T04:18:06;15.10;78.00
74809;DHT22;63338;39.544;2.596;2023-05-03T04:20:33;15.00;77.90
74809;DHT22;63338;39.544;2.596;2023-05-03T04:23:00;15.00;77.90
74809;DHT22;63338;39.544;2.596;2023-05-03T04:25:26;15.00;77.80
74809;DHT22;63338;39.544;2.596;2023-05-03T04:27:53;15.00;77.60
74809;DHT22;63338;39.544;2.596;2023-05-03T04:30:20;15.00;77.60
74809;DHT22;63338;39.544;2.596;2023-05-03T04:32:46;14.80;77.50
74809;DHT22;63338;39.544;2.596;2023-05-03T04:35:12;14.90;77.30
74809;DHT22;63338;39.544;2.596;2023-05-03T04:37:39;14.80;77.60
74809;DHT22;63338;39.544;2.596;2023-05-03T04:40:07;14.70;77.70
74809;DHT22;63338;39.544;2.596;2023-05-03T04:42:34;14.70;77.50
74809;DHT22;63338;39.544;2.596;2023-05-03T04:45:04;14.60;77.70
74809;DHT22;63338;39.544;2.596;2023-05-03T04:47:34;14.60;77.60
74809;DHT22;63338;39.544;2.596;2023-05-03T04:50:01;14.60;77.30
74809;DHT22;63338;39.544;2.596;2023-05-03T04:52:28;14.50;77.30
74809;DHT22;63338;39.544;2.596;2023-05-03T04:54:54;14.50;77.00
74809;DHT22;63338;39.544;2.596;2023-05-03T04:57:20;14.40;77.10
74809;DHT22;63338;39.544;2.596;2023-05-03T04:59:46;14.50;76.90
74809;DHT22;63338;39.544;2.596;2023-05-03T05:02:15;14.40;76.70
74809;DHT22;63338;39.544;2.596;2023-05-03T05:04:41;14.50;76.40
74809;DHT22;63338;39.544;2.596;2023-05-03T05:07:08;14.40;76.10
74809;DHT22;63338;39.544;2.596;2023-05-03T05:09:34;14.40;75.80
74809;DHT22;63338;39.544;2.596;2023-05-03T05:12:01;14.50;75.40
74809;DHT22;63338;39.544;2.596;2023-05-03T05:14:30;14.40;75.70
74809;DHT22;63338;39.544;2.596;2023-05-03T05:16:57;14.50;75.70
74809;DHT22;63338;39.544;2.596;2023-05-03T05:19:23;14.60;75.80
74809;DHT22;63338;39.544;2.596;2023-05-03T05:21:52;14.50;75.80
74809;DHT22;63338;39.544;2.596;2023-05-03T05:24:18;14.70;75.90
74809;DHT22;63338;39.544;2.596;2023-05-03T05:26:44;14.80;75.50
74809;DHT22;63338;39.544;2.596;2023-05-03T05:29:11;14.80;75.80
74809;DHT22;63338;39.544;2.596;2023-05-03T05:31:40;14.80;75.40
74809;DHT22;63338;39.544;2.596;2023-05-03T05:34:09;14.90;75.00
74809;DHT22;63338;39.544;2.596;2023-05-03T05:36:38;14.90;75.00
74809;DHT22;63338;39.544;2.596;2023-05-03T05:39:04;15.00;74.90
74809;DHT22;63338;39.544;2.596;2023-05-03T05:41:30;15.20;74.80
74809;DHT22;63338;39.544;2.596;2023-05-03T05:43:57;15.20;74.60
74809;DHT22;63338;39.544;2.596;2023-05-03T05:46:24;15.30;74.50
74809;DHT22;63338;39.544;2.596;2023-05-03T05:48:49;15.40;73.20
74809;DHT22;63338;39.544;2.596;2023-05-03T05:51:18;15.60;73.10
74809;DHT22;63338;39.544;2.596;2023-05-03T05:53:45;15.70;72.10
74809;DHT22;63338;39.544;2.596;2023-05-03T05:56:11;15.80;71.00
74809;DHT22;63338;39.544;2.596;2023-05-03T05:58:37;16.00;71.00
74809;DHT22;63338;39.544;2.596;2023-05-03T06:01:03;16.10;70.80
74809;DHT22;63338;39.544;2.596;2023-05-03T06:03:32;16.30;71.00
74809;DHT22;63338;39.544;2.596;2023-05-03T06:05:58;16.50;71.20
74809;DHT22;63338;39.544;2.596;2023-05-03T06:08:24;16.60;71.20
74809;DHT22;63338;39.544;2.596;2023-05-03T06:10:50;16.80;71.00
74809;DHT22;63338;39.544;2.596;2023-05-03T06:13:18;17.00;71.20
74809;DHT22;63338;39.544;2.596;2023-05-03T06:15:43;17.10;71.90
74809;DHT22;63338;39.544;2.596;2023-05-03T06:18:10;17.30;72.90
74809;DHT22;63338;39.544;2.596;2023-05-03T06:20:36;17.40;73.50
74809;DHT22;63338;39.544;2.596;2023-05-03T06:23:03;17.60;73.90
74809;DHT22;63338;39.544;2.596;2023-05-03T06:25:29;17.80;73.90
74809;DHT22;63338;39.544;2.596;2023-05-03T06:27:55;17.90;74.00
74809;DHT22;63338;39.544;2.596;2023-05-03T06:30:21;18.10;73.60
74809;DHT22;63338;39.544;2.596;2023-05-03T06:32:50;18.20;71.90
74809;DHT22;63338;39.544;2.596;2023-05-03T06:35:16;18.40;72.20
74809;DHT22;63338;39.544;2.596;2023-05-03T06:37:44;18.60;71.80
74809;DHT22;63338;39.544;2.596;2023-05-03T06:40:10;18.60;71.80
74809;DHT22;63338;39.544;2.596;2023-05-03T06:42:36;18.80;71.60
74809;DHT22;63338;39.544;2.596;2023-05-03T06:45:03;18.90;71.20
74809;DHT22;63338;39.544;2.596;2023-05-03T06:47:29;18.90;69.40
74809;DHT22;63338;39.544;2.596;2023-05-03T06:49:55;19.00;69.40
74809;DHT22;63338;39.544;2.596;2023-05-03T06:52:21;19.10;69.60
74809;DHT22;63338;39.544;2.596;2023-05-03T06:54:47;19.20;69.00
74809;DHT22;63338;39.544;2.596;2023-05-03T06:57:13;19.30;69.10
74809;DHT22;63338;39.544;2.596;2023-05-03T06:59:39;19.40;69.50
74809;DHT22;63338;39.544;2.596;2023-05-03T07:02:06;19.40;69.50
74809;DHT22;63338;39.544;2.596;2023-05-03T07:04:32;19.60;70.00
74809;DHT22;63338;39.544;2.596;2023-05-03T07:06:58;19.70;70.90
74809;DHT22;63338;39.544;2.596;2023-05-03T07:09:24;19.80;71.20
74809;DHT22;63338;39.544;2.596;2023-05-03T07:11:50;19.90;71.70
74809;DHT22;63338;39.544;2.596;2023-05-03T07:14:16;19.90;71.90
74809;DHT22;63338;39.544;2.596;2023-05-03T07:16:42;20.00;71.70
74809;DHT22;63338;39.544;2.596;2023-05-03T07:19:08;20.10;72.20
74809;DHT22;63338;39.544;2.596;2023-05-03T07:21:34;20.10;72.40
74809;DHT22;63338;39.544;2.596;2023-05-03T07:24:00;20.20;72.50
74809;DHT22;63338;39.544;2.596;2023-05-03T07:26:26;20.20;72.60
74809;DHT22;63338;39.544;2.596;2023-05-03T07:28:53;20.30;72.30
74809;DHT22;63338;39.544;2.596;2023-05-03T07:31:21;20.40;72.10
74809;DHT22;63338;39.544;2.596;2023-05-03T07:33:47;20.50;71.70
74809;DHT22;63338;39.544;2.596;2023-05-03T07:36:13;20.50;71.70
74809;DHT22;63338;39.544;2.596;2023-05-03T07:38:39;20.50;71.60
74809;DHT22;63338;39.544;2.596;2023-05-03T07:41:05;20.60;70.70
74809;DHT22;63338;39.544;2.596;2023-05-03T07:43:31;20.60;70.00
74809;DHT22;63338;39.544;2.596;2023-05-03T07:45:58;20.60;70.80
74809;DHT22;63338;39.544;2.596;2023-05-03T07:48:24;20.60;70.20
74809;DHT22;63338;39.544;2.596;2023-05-03T07:50:50;20.60;70.50
74809;DHT22;63338;39.544;2.596;2023-05-03T07:53:19;20.50;70.30
74809;DHT22;63338;39.544;2.596;2023-05-03T07:55:45;20.40;70.40
74809;DHT22;63338;39.544;2.596;2023-05-03T07:58:11;20.40;70.30
74809;DHT22;63338;39.544;2.596;2023-05-03T08:00:37;20.40;70.20
74809;DHT22;63338;39.544;2.596;2023-05-03T08:03:03;20.30;70.20
74809;DHT22;63338;39.544;2.596;2023-05-03T08:05:33;20.40;70.00
74809;DHT22;63338;39.544;2.596;2023-05-03T08:08:01;20.30;70.00
74809;DHT22;63338;39.544;2.596;2023-05-03T08:10:28;20.50;70.10
74809;DHT22;63338;39.544;2.596;2023-05-03T08:13:03;20.60;70.20
74809;DHT22;63338;39.544;2.596;2023-05-03T08:15:31;20.60;70.10
74809;DHT22;63338;39.544;2.596;2023-05-03T08:17:57;20.70;69.30
74809;DHT22;63338;39.544;2.596;2023-05-03T08:20:23;20.90;68.10
74809;DHT22;63338;39.544;2.596;2023-05-03T08:22:52;20.90;68.90
74809;DHT22;63338;39.544;2.596;2023-05-03T08:25:22;21.20;67.50
74809;DHT22;63338;39.544;2.596;2023-05-03T08:27:50;21.40;66.70
74809;DHT22;63338;39.544;2.596;2023-05-03T08:30:17;21.60;66.90
74809;DHT22;63338;39.544;2.596;2023-05-03T08:32:44;21.90;66.10
74809;DHT22;63338;39.544;2.596;2023-05-03T08:35:10;22.20;65.80
74809;DHT22;63338;39.544;2.596;2023-05-03T08:37:42;22.60;64.40
74809;DHT22;63338;39.544;2.596;2023-05-03T08:40:12;23.00;63.30
74809;DHT22;63338;39.544;2.596;2023-05-03T08:42:45;23.50;62.30
74809;DHT22;63338;39.544;2.596;2023-05-03T08:45:13;23.80;61.00
74809;DHT22;63338;39.544;2.596;2023-05-03T08:47:41;24.30;60.30
74809;DHT22;63338;39.544;2.596;2023-05-03T08:50:11;24.80;59.20
74809;DHT22;63338;39.544;2.596;2023-05-03T08:52:41;25.20;58.30
74809;DHT22;63338;39.544;2.596;2023-05-03T08:55:10;25.60;57.80
74809;DHT22;63338;39.544;2.596;2023-05-03T08:57:37;26.00;57.10
74809;DHT22;63338;39.544;2.596;2023-05-03T09:00:06;26.40;55.70
74809;DHT22;63338;39.544;2.596;2023-05-03T09:02:37;26.60;55.10
74809;DHT22;63338;39.544;2.596;2023-05-03T09:05:35;26.80;54.80
74809;DHT22;63338;39.544;2.596;2023-05-03T09:10:35;27.20;55.00
74809;DHT22;63338;39.544;2.596;2023-05-03T09:13:02;27.50;54.50
74809;DHT22;63338;39.544;2.596;2023-05-03T09:15:29;27.70;54.80
74809;DHT22;63338;39.544;2.596;2023-05-03T09:18:09;27.70;53.90
74809;DHT22;63338;39.544;2.596;2023-05-03T09:20:37;28.10;53.80
74809;DHT22;63338;39.544;2.596;2023-05-03T09:23:05;28.40;53.10
74809;DHT22;63338;39.544;2.596;2023-05-03T09:25:49;28.60;53.30
74809;DHT22;63338;39.544;2.596;2023-05-03T09:28:19;28.80;52.70
74809;DHT22;63338;39.544;2.596;2023-05-03T09:30:47;28.90;52.60
74809;DHT22;63338;39.544;2.596;2023-05-03T09:33:13;28.90;52.40
74809;DHT22;63338;39.544;2.596;2023-05-03T09:36:01;28.80;52.80
74809;DHT22;63338;39.544;2.596;2023-05-03T09:38:32;28.80;53.30
74809;DHT22;63338;39.544;2.596;2023-05-03T09:41:02;28.60;53.30
74809;DHT22;63338;39.544;2.596;2023-05-03T09:43:31;28.40;53.40
74809;DHT22;63338;39.544;2.596;2023-05-03T09:46:11;28.50;52.80
74809;DHT22;63338;39.544;2.596;2023-05-03T09:48:38;28.40;51.10
74809;DHT22;63338;39.544;2.596;2023-05-03T09:51:05;28.60;48.60
74809;DHT22;63338;39.544;2.596;2023-05-03T09:53:32;28.60;48.90
74809;DHT22;63338;39.544;2.596;2023-05-03T09:56:01;28.90;48.70
74809;DHT22;63338;39.544;2.596;2023-05-03T09:58:28;29.20;46.90
74809;DHT22;63338;39.544;2.596;2023-05-03T10:00:56;29.40;47.00
74809;DHT22;63338;39.544;2.596;2023-05-03T10:03:51;29.70;45.00
74809;DHT22;63338;39.544;2.596;2023-05-03T10:08:56;29.70;45.30
74809;DHT22;63338;39.544;2.596;2023-05-03T10:11:26;29.90;46.70
74809;DHT22;63338;39.544;2.596;2023-05-03T10:13:53;30.00;43.80
74809;DHT22;63338;39.544;2.596;2023-05-03T10:16:28;30.20;44.80
74809;DHT22;63338;39.544;2.596;2023-05-03T10:24:14;29.80;43.80
74809;DHT22;63338;39.544;2.596;2023-05-03T10:26:44;29.70;42.40
74809;DHT22;63338;39.544;2.596;2023-05-03T10:32:30;29.20;40.40
74809;DHT22;63338;39.544;2.596;2023-05-03T10:35:01;29.30;41.00
74809;DHT22;63338;39.544;2.596;2023-05-03T10:37:28;29.10;41.20
74809;DHT22;63338;39.544;2.596;2023-05-03T10:39:55;28.90;41.30
74809;DHT22;63338;39.544;2.596;2023-05-03T10:42:23;29.10;40.50
74809;DHT22;63338;39.544;2.596;2023-05-03T10:44:52;29.00;40.30
74809;DHT22;63338;39.544;2.596;2023-05-03T10:47:23;28.90;40.90
74809;DHT22;63338;39.544;2.596;2023-05-03T10:55:33;29.30;39.50
74809;DHT22;63338;39.544;2.596;2023-05-03T10:58:00;29.40;39.60
74809;DHT22;63338;39.544;2.596;2023-05-03T11:05:42;29.30;39.80
74809;DHT22;63338;39.544;2.596;2023-05-03T11:08:14;29.20;40.50
74809;DHT22;63338;39.544;2.596;2023-05-03T11:10:46;29.10;40.20
74809;DHT22;63338;39.544;2.596;2023-05-03T11:13:13;28.90;40.20
74809;DHT22;63338;39.544;2.596;2023-05-03T11:15:40;28.90;40.90
74809;DHT22;63338;39.544;2.596;2023-05-03T11:18:07;28.80;40.40
74809;DHT22;63338;39.544;2.596;2023-05-03T11:20:43;28.80;40.50
74809;DHT22;63338;39.544;2.596;2023-05-03T11:23:15;28.70;41.10
74809;DHT22;63338;39.544;2.596;2023-05-03T11:25:41;28.60;40.30
74809;DHT22;63338;39.544;2.596;2023-05-03T11:28:07;28.40;40.30
74809;DHT22;63338;39.544;2.596;2023-05-03T11:30:33;28.10;40.30
74809;DHT22;63338;39.544;2.596;2023-05-03T11:33:01;27.90;40.40
74809;DHT22;63338;39.544;2.596;2023-05-03T11:35:30;27.70;41.30
74809;DHT22;63338;39.544;2.596;2023-05-03T11:37:57;27.40;42.10
74809;DHT22;63338;39.544;2.596;2023-05-03T11:40:23;27.30;41.90
74809;DHT22;63338;39.544;2.596;2023-05-03T11:45:31;27.40;41.30
74809;DHT22;63338;39.544;2.596;2023-05-03T11:48:03;27.40;41.40
74809;DHT22;63338;39.544;2.596;2023-05-03T11:50:48;27.30;42.20
74809;DHT22;63338;39.544;2.596;2023-05-03T11:53:22;27.50;41.50
74809;DHT22;63338;39.544;2.596;2023-05-03T11:55:52;27.50;41.00
74809;DHT22;63338;39.544;2.596;2023-05-03T11:58:25;27.30;41.00
74809;DHT22;63338;39.544;2.596;2023-05-03T12:00:54;27.20;41.10
74809;DHT22;63338;39.544;2.596;2023-05-03T12:03:22;27.00;41.20
74809;DHT22;63338;39.544;2.596;2023-05-03T12:05:50;26.90;41.40
74809;DHT22;63338;39.544;2.596;2023-05-03T12:08:18;26.80;41.10
74809;DHT22;63338;39.544;2.596;2023-05-03T12:10:49;26.50;41.40
74809;DHT22;63338;39.544;2.596;2023-05-03T12:13:39;26.30;42.20
74809;DHT22;63338;39.544;2.596;2023-05-03T12:16:06;26.10;42.70
74809;DHT22;63338;39.544;2.596;2023-05-03T12:18:52;26.00;42.80
74809;DHT22;63338;39.544;2.596;2023-05-03T12:21:20;25.70;43.10
74809;DHT22;63338;39.544;2.596;2023-05-03T12:23:47;25.40;42.80
74809;DHT22;63338;39.544;2.596;2023-05-03T12:26:17;25.20;43.40
74809;DHT22;63338;39.544;2.596;2023-05-03T12:28:46;25.20;43.10
74809;DHT22;63338;39.544;2.596;2023-05-03T12:31:12;25.20;43.60
74809;DHT22;63338;39.544;2.596;2023-05-03T12:33:39;25.20;43.10
74809;DHT22;63338;39.544;2.596;2023-05-03T12:36:05;25.10;42.90
74809;DHT22;63338;39.544;2.596;2023-05-03T12:38:35;25.10;43.30
74809;DHT22;63338;39.544;2.596;2023-05-03T12:41:01;24.90;43.00
74809;DHT22;63338;39.544;2.596;2023-05-03T12:43:27;24.90;43.90
74809;DHT22;63338;39.544;2.596;2023-05-03T12:45:53;25.10;43.90
74809;DHT22;63338;39.544;2.596;2023-05-03T12:48:19;25.00;43.20
74809;DHT22;63338;39.544;2.596;2023-05-03T12:50:49;24.90;43.50
74809;DHT22;63338;39.544;2.596;2023-05-03T12:53:15;24.80;43.90
74809;DHT22;63338;39.544;2.596;2023-05-03T12:55:41;24.80;44.00
74809;DHT22;63338;39.544;2.596;2023-05-03T12:58:08;24.80;43.80
74809;DHT22;63338;39.544;2.596;2023-05-03T13:00:34;24.80;43.50
74809;DHT22;63338;39.544;2.596;2023-05-03T13:03:01;24.80;43.50
74809;DHT22;63338;39.544;2.596;2023-05-03T13:05:32;24.60;43.00
74809;DHT22;63338;39.544;2.596;2023-05-03T13:07:59;24.50;43.80
74809;DHT22;63338;39.544;2.596;2023-05-03T13:10:26;24.50;43.80
74809;DHT22;63338;39.544;2.596;2023-05-03T13:12:52;24.50;44.50
74809;DHT22;63338;39.544;2.596;2023-05-03T13:15:22;24.40;44.20
74809;DHT22;63338;39.544;2.596;2023-05-03T13:17:52;24.50;44.00
74809;DHT22;63338;39.544;2.596;2023-05-03T13:20:19;24.50;43.90
74809;DHT22;63338;39.544;2.596;2023-05-03T13:22:47;24.60;44.40
74809;DHT22;63338;39.544;2.596;2023-05-03T13:25:13;24.60;43.50
74809;DHT22;63338;39.544;2.596;2023-05-03T13:27:40;24.50;43.90
74809;DHT22;63338;39.544;2.596;2023-05-03T13:30:06;24.60;44.50
74809;DHT22;63338;39.544;2.596;2023-05-03T13:32:33;24.50;44.10
74809;DHT22;63338;39.544;2.596;2023-05-03T13:34:59;24.50;44.90
74809;DHT22;63338;39.544;2.596;2023-05-03T13:37:25;24.50;43.80
74809;DHT22;63338;39.544;2.596;2023-05-03T13:39:51;24.30;44.90
74809;DHT22;63338;39.544;2.596;2023-05-03T13:42:17;24.30;44.30
74809;DHT22;63338;39.544;2.596;2023-05-03T13:44:44;24.20;45.20
74809;DHT22;63338;39.544;2.596;2023-05-03T13:47:14;24.10;44.80
74809;DHT22;63338;39.544;2.596;2023-05-03T13:49:41;24.00;46.20
74809;DHT22;63338;39.544;2.596;2023-05-03T13:52:08;23.90;46.80
74809;DHT22;63338;39.544;2.596;2023-05-03T13:54:35;23.80;47.40
74809;DHT22;63338;39.544;2.596;2023-05-03T13:57:00;23.70;47.90
74809;DHT22;63338;39.544;2.596;2023-05-03T13:59:26;23.60;49.50
74809;DHT22;63338;39.544;2.596;2023-05-03T14:01:53;23.70;49.70
74809;DHT22;63338;39.544;2.596;2023-05-03T14:04:20;23.70;51.60
74809;DHT22;63338;39.544;2.596;2023-05-03T14:06:46;23.70;51.90
74809;DHT22;63338;39.544;2.596;2023-05-03T14:09:13;23.80;51.80
74809;DHT22;63338;39.544;2.596;2023-05-03T14:11:39;23.80;51.30
74809;DHT22;63338;39.544;2.596;2023-05-03T14:14:06;23.80;52.00
74809;DHT22;63338;39.544;2.596;2023-05-03T14:16:32;23.80;51.20
74809;DHT22;63338;39.544;2.596;2023-05-03T14:18:58;23.70;52.80
74809;DHT22;63338;39.544;2.596;2023-05-03T14:21:24;23.50;52.00
74809;DHT22;63338;39.544;2.596;2023-05-03T14:23:51;23.30;52.80
74809;DHT22;63338;39.544;2.596;2023-05-03T14:26:18;23.30;54.10
74809;DHT22;63338;39.544;2.596;2023-05-03T14:28:44;23.30;53.90
74809;DHT22;63338;39.544;2.596;2023-05-03T14:31:11;23.30;53.60
74809;DHT22;63338;39.544;2.596;2023-05-03T14:33:38;23.20;53.10
74809;DHT22;63338;39.544;2.596;2023-05-03T14:36:07;23.10;53.10
74809;DHT22;63338;39.544;2.596;2023-05-03T14:38:35;23.00;53.40
74809;DHT22;63338;39.544;2.596;2023-05-03T14:41:02;23.20;54.10
74809;DHT22;63338;39.544;2.596;2023-05-03T14:43:28;23.20;54.60
74809;DHT22;63338;39.544;2.596;2023-05-03T14:45:54;23.20;54.60
74809;DHT22;63338;39.544;2.596;2023-05-03T14:48:20;23.20;55.10
74809;DHT22;63338;39.544;2.596;2023-05-03T14:50:50;23.10;55.30
74809;DHT22;63338;39.544;2.596;2023-05-03T14:53:16;23.10;55.90
74809;DHT22;63338;39.544;2.596;2023-05-03T14:55:42;23.00;56.70
74809;DHT22;63338;39.544;2.596;2023-05-03T14:58:08;23.00;57.00
74809;DHT22;63338;39.544;2.596;2023-05-03T15:00:38;23.00;57.40
74809;DHT22;63338;39.544;2.596;2023-05-03T15:03:07;22.90;57.90
74809;DHT22;63338;39.544;2.596;2023-05-03T15:05:44;23.00;58.50
74809;DHT22;63338;39.544;2.596;2023-05-03T15:08:11;23.00;58.50
74809;DHT22;63338;39.544;2.596;2023-05-03T15:10:38;23.00;59.20
74809;DHT22;63338;39.544;2.596;2023-05-03T15:13:04;23.00;59.90
74809;DHT22;63338;39.544;2.596;2023-05-03T15:15:30;22.90;59.70
74809;DHT22;63338;39.544;2.596;2023-05-03T15:17:56;22.90;60.40
74809;DHT22;63338;39.544;2.596;2023-05-03T15:20:23;22.80;61.00
74809;DHT22;63338;39.544;2.596;2023-05-03T15:22:49;22.80;60.90
74809;DHT22;63338;39.544;2.596;2023-05-03T15:25:21;22.80;61.80
74809;DHT22;63338;39.544;2.596;2023-05-03T15:27:47;22.80;61.50
74809;DHT22;63338;39.544;2.596;2023-05-03T15:30:13;22.80;63.40
74809;DHT22;63338;39.544;2.596;2023-05-03T15:32:42;22.70;63.70
74809;DHT22;63338;39.544;2.596;2023-05-03T15:35:08;22.60;63.50
74809;DHT22;63338;39.544;2.596;2023-05-03T15:37:36;22.70;64.50
74809;DHT22;63338;39.544;2.596;2023-05-03T15:40:09;22.70;64.30
74809;DHT22;63338;39.544;2.596;2023-05-03T15:42:37;22.70;64.90
74809;DHT22;63338;39.544;2.596;2023-05-03T15:45:04;22.60;64.60
74809;DHT22;63338;39.544;2.596;2023-05-03T15:47:32;22.70;64.10
74809;DHT22;63338;39.544;2.596;2023-05-03T15:49:58;22.60;64.00
74809;DHT22;63338;39.544;2.596;2023-05-03T15:52:24;22.60;66.00
74809;DHT22;63338;39.544;2.596;2023-05-03T15:54:51;22.60;66.20
74809;DHT22;63338;39.544;2.596;2023-05-03T15:57:17;22.50;66.50
74809;DHT22;63338;39.544;2.596;2023-05-03T15:59:43;22.50;66.60
74809;DHT22;63338;39.544;2.596;2023-05-03T16:02:09;22.50;64.40
74809;DHT22;63338;39.544;2.596;2023-05-03T16:04:35;22.60;63.70